createdAt,value
2018-12-08T00:02:57.181Z,97742.14
2018-12-08T00:06:00.441Z,97757.38
2018-12-08T00:09:04.609Z,97746.13
2018-12-08T00:12:07.852Z,97770.71
2018-12-08T00:15:11.191Z,97776.04
2018-12-08T00:18:14.415Z,97773.64
2018-12-08T00:21:17.638Z,97781.12
2018-12-08T00:24:20.874Z,97776.31
2018-12-08T00:27:24.187Z,97777.36
2018-12-08T00:30:45.390Z,97783.78
2018-12-08T00:33:48.688Z,97790.73
2018-12-08T00:36:51.945Z,97787.51
2018-12-08T00:39:55.169Z,97808.34
2018-12-08T00:42:58.401Z,97808.63
2018-12-08T00:46:01.670Z,97816.11
2018-12-08T00:49:04.884Z,97822.78
2018-12-08T00:52:08.234Z,97816.63
2018-12-08T00:55:11.577Z,97820.35
2018-12-08T00:58:14.881Z,97822.27
2018-12-08T01:01:18.156Z,97826.25
2018-12-08T01:04:21.373Z,97839.06
2018-12-08T01:07:24.640Z,97837.76
2018-12-08T01:10:27.884Z,97850.05
2018-12-08T01:13:31.139Z,97853.80
2018-12-08T01:16:34.380Z,97847.63
2018-12-08T01:19:37.702Z,97858.02
2018-12-08T01:22:40.901Z,97857.23
2018-12-08T01:25:44.211Z,97858.00
2018-12-08T01:28:47.432Z,97860.67
2018-12-08T01:31:50.653Z,97871.34
2018-12-08T01:34:54.102Z,97872.94
2018-12-08T01:37:57.318Z,97868.41
2018-12-08T01:41:00.587Z,97870.52
2018-12-08T01:44:03.860Z,97866.25
2018-12-08T01:47:07.122Z,97864.05
2018-12-08T01:50:10.388Z,97864.34
2018-12-08T01:53:13.685Z,97866.22
2018-12-08T01:56:16.947Z,97871.81
2018-12-08T01:59:20.192Z,97870.74
2018-12-08T02:02:23.489Z,97867.02
2018-12-08T02:05:26.721Z,97870.77
2018-12-08T02:08:29.941Z,97874.24
2018-12-08T02:11:33.162Z,97869.33
2018-12-08T02:14:36.454Z,97875.19
2018-12-08T02:17:39.697Z,97875.70
2018-12-08T02:20:42.933Z,97871.41
2018-12-08T02:23:46.156Z,97866.81
2018-12-08T02:26:49.394Z,97874.09
2018-12-08T02:29:52.751Z,97879.97
2018-12-08T02:32:55.960Z,97877.84
2018-12-08T02:35:59.218Z,97880.57
2018-12-08T02:39:02.897Z,97892.32
2018-12-08T02:42:06.134Z,97876.64
2018-12-08T02:45:09.466Z,97876.12
2018-12-08T02:48:12.832Z,97882.81
2018-12-08T02:51:16.062Z,97888.66
2018-12-08T02:54:19.318Z,97877.15
2018-12-08T02:57:22.547Z,97882.98
2018-12-08T03:00:25.869Z,97886.48
2018-12-08T03:03:29.109Z,97880.64
2018-12-08T03:06:32.421Z,97893.14
2018-12-08T03:09:35.685Z,97889.42
2018-12-08T03:12:38.896Z,97877.42
2018-12-08T03:15:42.130Z,97883.82
2018-12-08T03:18:45.360Z,97900.87
2018-12-08T03:21:48.722Z,97900.34
2018-12-08T03:24:52.025Z,97901.34
2018-12-08T03:27:55.356Z,97913.83
2018-12-08T03:30:58.694Z,97901.80
2018-12-08T03:34:02.054Z,97913.25
2018-12-08T03:37:05.352Z,97919.09
2018-12-08T03:40:08.924Z,97900.94
2018-12-08T03:43:12.229Z,97902.28
2018-12-08T03:46:15.508Z,97902.05
2018-12-08T03:49:18.781Z,97883.36
2018-12-08T03:52:22.094Z,97878.82
2018-12-08T03:55:25.402Z,97886.27
2018-12-08T03:58:28.711Z,97888.88
2018-12-08T04:01:31.987Z,97900.91
2018-12-08T04:04:35.267Z,97895.34
2018-12-08T04:07:38.501Z,97899.88
2018-12-08T04:10:41.827Z,97887.30
2018-12-08T04:13:45.186Z,97894.48
2018-12-08T04:16:48.517Z,97890.94
2018-12-08T04:19:51.747Z,97890.27
2018-12-08T04:22:54.966Z,97887.63
2018-12-08T04:25:58.245Z,97897.27
2018-12-08T04:29:01.512Z,97904.30
2018-12-08T04:32:04.848Z,97887.22
2018-12-08T04:35:08.107Z,97884.27
2018-12-08T04:38:11.400Z,97894.14
2018-12-08T04:41:14.626Z,97891.23
2018-12-08T04:44:17.844Z,97889.38
2018-12-08T04:47:21.078Z,97891.03
2018-12-08T04:50:24.393Z,97896.63
2018-12-08T04:53:27.601Z,97895.03
2018-12-08T04:56:30.829Z,97893.35
2018-12-08T04:59:34.044Z,97890.95
2018-12-08T05:02:37.273Z,97883.95
2018-12-08T05:05:40.532Z,97889.85
2018-12-08T05:08:43.785Z,97885.86
2018-12-08T05:11:47.068Z,97877.89
2018-12-08T05:14:50.289Z,97883.06
2018-12-08T05:17:53.512Z,97887.01
2018-12-08T05:20:56.760Z,97891.73
2018-12-08T05:23:59.984Z,97894.97
2018-12-08T05:27:03.200Z,97892.77
2018-12-08T05:30:06.739Z,97891.99
2018-12-08T05:33:09.997Z,97906.18
2018-12-08T05:36:13.228Z,97892.05
2018-12-08T05:39:16.658Z,97888.02
2018-12-08T05:42:19.892Z,97895.75
2018-12-08T05:45:23.124Z,97891.58
2018-12-08T05:48:26.370Z,97907.57
2018-12-08T05:51:29.598Z,97903.02
2018-12-08T05:54:32.825Z,97902.81
2018-12-08T05:57:36.152Z,97914.14
2018-12-08T06:00:39.537Z,97923.00
2018-12-08T06:03:42.768Z,97923.55
2018-12-08T06:06:46.000Z,97927.58
2018-12-08T06:09:49.220Z,97939.86
2018-12-08T06:12:52.452Z,97937.51
2018-12-08T06:15:55.668Z,97945.03
2018-12-08T06:18:58.912Z,97951.59
2018-12-08T06:22:02.131Z,97952.23
2018-12-08T06:25:08.561Z,97948.52
2018-12-08T06:28:14.267Z,97952.78
2018-12-08T06:31:17.520Z,97956.28
2018-12-08T06:34:20.744Z,97949.32
2018-12-08T06:37:24.014Z,97942.09
2018-12-08T06:40:29.304Z,97941.33
2018-12-08T06:43:32.469Z,97932.49
2018-12-08T06:46:35.717Z,97934.69
2018-12-08T06:49:38.973Z,97935.23
2018-12-08T06:52:42.185Z,97932.28
2018-12-08T06:55:45.472Z,97925.28
2018-12-08T06:58:48.814Z,97926.38
2018-12-08T07:01:52.045Z,97916.78
2018-12-08T07:04:55.256Z,97927.37
2018-12-08T07:07:58.484Z,97929.25
2018-12-08T07:11:01.728Z,97917.59
2018-12-08T07:14:05.012Z,97920.78
2018-12-08T07:17:08.349Z,97933.56
2018-12-08T07:20:11.598Z,97925.64
2018-12-08T07:23:14.825Z,97925.06
2018-12-08T07:26:18.058Z,97925.69
2018-12-08T07:29:25.197Z,97910.98
2018-12-08T07:32:28.564Z,97913.67
2018-12-08T07:35:31.809Z,97915.52
2018-12-08T07:38:35.074Z,97925.64
2018-12-08T07:41:38.329Z,97920.57
2018-12-08T07:44:41.586Z,97931.80
2018-12-08T07:47:44.847Z,97918.22
2018-12-08T07:50:48.067Z,97923.00
2018-12-08T07:53:51.586Z,97933.66
2018-12-08T07:56:54.812Z,97916.33
2018-12-08T07:59:58.032Z,97902.28
2018-12-08T08:03:01.285Z,97909.23
2018-12-08T08:06:04.632Z,97894.08
2018-12-08T08:09:07.886Z,97895.09
2018-12-08T08:12:11.144Z,97898.55
2018-12-08T08:15:14.394Z,97887.33
2018-12-08T08:18:17.621Z,97896.22
2018-12-08T08:21:20.926Z,97886.90
2018-12-08T08:24:24.227Z,97899.48
2018-12-08T08:27:27.529Z,97899.45
2018-12-08T08:30:30.750Z,97891.25
2018-12-08T08:33:33.981Z,97885.95
2018-12-08T08:36:37.284Z,97887.84
2018-12-08T08:39:40.505Z,97887.00
2018-12-08T08:42:43.804Z,97881.63
2018-12-08T08:45:47.016Z,97870.47
2018-12-08T08:48:50.249Z,97877.41
2018-12-08T08:51:53.475Z,97871.59
2018-12-08T08:54:56.790Z,97863.59
2018-12-08T08:57:59.995Z,97871.61
2018-12-08T09:01:03.395Z,97870.58
2018-12-08T09:04:06.627Z,97878.06
2018-12-08T09:07:09.852Z,97867.70
2018-12-08T09:10:13.085Z,97862.86
2018-12-08T09:13:16.309Z,97847.08
2018-12-08T09:16:19.549Z,97842.55
2018-12-08T09:19:22.778Z,97843.34
2018-12-08T09:22:26.153Z,97839.11
2018-12-08T09:25:29.374Z,97842.03
2018-12-08T09:28:32.632Z,97832.69
2018-12-08T09:31:35.843Z,97838.80
2018-12-08T09:34:39.068Z,97831.07
2018-12-08T09:37:42.351Z,97812.38
2018-12-08T09:40:45.556Z,97817.18
2018-12-08T09:43:48.780Z,97813.73
2018-12-08T09:46:51.997Z,97806.48
2018-12-08T09:49:55.313Z,97821.42
2018-12-08T09:53:12.866Z,97817.43
2018-12-08T09:56:16.084Z,97816.89
2018-12-08T09:59:19.335Z,97807.82
2018-12-08T10:02:22.576Z,97818.77
2018-12-08T10:05:25.823Z,97793.39
2018-12-08T10:08:29.080Z,97799.30
2018-12-08T10:11:32.325Z,97807.80
2018-12-08T10:14:35.680Z,97815.84
2018-12-08T10:17:38.981Z,97815.56
2018-12-08T10:20:42.527Z,97803.00
2018-12-08T10:23:45.837Z,97795.81
2018-12-08T10:26:49.031Z,97809.16
2018-12-08T10:29:52.267Z,97806.77
2018-12-08T10:32:55.593Z,97818.52
2018-12-08T10:35:58.923Z,97817.72
2018-12-08T10:39:02.219Z,97818.50
2018-12-08T10:42:05.429Z,97809.95
2018-12-08T10:45:08.725Z,97806.22
2018-12-08T10:48:11.972Z,97804.61
2018-12-08T10:51:15.188Z,97819.84
2018-12-08T10:54:18.416Z,97796.64
2018-12-08T10:57:21.951Z,97798.49
2018-12-08T11:00:30.727Z,97807.58
2018-12-08T11:03:52.493Z,97814.05
2018-12-08T11:06:55.755Z,97789.59
2018-12-08T11:09:58.969Z,97796.85
2018-12-08T11:13:02.231Z,97793.97
2018-12-08T11:16:05.581Z,97802.17
2018-12-08T11:19:08.861Z,97813.36
2018-12-08T11:22:12.083Z,97797.66
2018-12-08T11:25:15.434Z,97780.04
2018-12-08T11:28:18.648Z,97792.05
2018-12-08T11:31:21.907Z,97784.28
2018-12-08T11:34:25.161Z,97784.59
2018-12-08T11:37:28.376Z,97774.68
2018-12-08T11:40:31.610Z,97776.80
2018-12-08T11:43:34.839Z,97785.84
2018-12-08T11:46:39.234Z,97785.00
2018-12-08T11:49:43.118Z,97788.23
2018-12-08T11:52:46.577Z,97790.19
2018-12-08T11:55:49.799Z,97780.30
2018-12-08T11:58:53.026Z,97784.58
2018-12-08T12:01:56.336Z,97772.02
2018-12-08T12:04:59.674Z,97774.68
2018-12-08T12:08:03.033Z,97772.04
2018-12-08T12:11:06.241Z,97773.12
2018-12-08T12:14:09.507Z,97766.96
2018-12-08T12:17:12.760Z,97770.71
2018-12-08T12:20:15.988Z,97771.49
2018-12-08T12:23:19.249Z,97773.66
2018-12-08T12:26:22.545Z,97766.95
2018-12-08T12:29:25.796Z,97773.38
2018-12-08T12:32:29.139Z,97767.76
2018-12-08T12:35:32.417Z,97764.53
2018-12-08T12:38:35.649Z,97754.88
2018-12-08T12:41:38.904Z,97759.09
2018-12-08T12:44:42.206Z,97755.55
2018-12-08T12:47:45.532Z,97755.86
2018-12-08T12:50:48.857Z,97752.69
2018-12-08T12:53:52.085Z,97744.87
2018-12-08T12:56:55.360Z,97743.43
2018-12-08T12:59:58.749Z,97745.45
2018-12-08T13:03:02.052Z,97754.48
2018-12-08T13:06:05.286Z,97766.80
2018-12-08T13:09:08.570Z,97752.49
2018-12-08T13:12:12.193Z,97763.70
2018-12-08T13:15:15.562Z,97758.88
2018-12-08T13:18:18.780Z,97749.31
2018-12-08T13:21:22.057Z,97748.05
2018-12-08T13:24:30.361Z,97754.17
2018-12-08T13:27:33.610Z,97755.33
2018-12-08T13:30:36.860Z,97754.55
2018-12-08T13:33:40.089Z,97746.86
2018-12-08T13:36:43.352Z,97749.00
2018-12-08T13:39:46.559Z,97745.78
2018-12-08T13:42:49.804Z,97750.84
2018-12-08T13:45:53.067Z,97752.99
2018-12-08T13:48:56.299Z,97748.50
2018-12-08T13:51:59.640Z,97754.91
2018-12-08T13:55:02.930Z,97753.82
2018-12-08T13:58:06.160Z,97759.45
2018-12-08T14:01:09.426Z,97753.83
2018-12-08T14:04:12.640Z,97759.18
2018-12-08T14:07:15.913Z,97768.56
2018-12-08T14:10:19.128Z,97767.48
2018-12-08T14:13:22.466Z,97766.69
2018-12-08T14:16:25.697Z,97768.80
2018-12-08T14:19:28.973Z,97768.28
2018-12-08T14:22:32.201Z,97770.69
2018-12-08T14:25:35.461Z,97766.42
2018-12-08T14:28:39.136Z,97772.81
2018-12-08T14:31:43.053Z,97765.36
2018-12-08T14:34:46.280Z,97772.05
2018-12-08T14:37:49.572Z,97781.66
2018-12-08T14:40:52.800Z,97787.27
2018-12-08T14:43:56.061Z,97785.92
2018-12-08T14:46:59.303Z,97789.92
2018-12-08T14:50:02.690Z,97784.59
2018-12-08T14:53:06.092Z,97780.84
2018-12-08T14:56:09.349Z,97783.53
2018-12-08T14:59:12.578Z,97774.41
2018-12-08T15:02:15.803Z,97776.03
2018-12-08T15:05:19.055Z,97765.34
2018-12-08T15:08:22.286Z,97768.81
2018-12-08T15:11:25.562Z,97764.00
2018-12-08T15:14:30.400Z,97780.85
2018-12-08T15:17:33.950Z,97752.27
2018-12-08T15:20:37.432Z,97749.87
2018-12-08T15:23:40.902Z,97752.26
2018-12-08T15:26:44.141Z,97748.52
2018-12-08T15:29:47.394Z,97742.89
2018-12-08T15:32:50.602Z,97750.39
2018-12-08T15:35:54.708Z,97733.56
2018-12-08T15:38:57.952Z,97722.87
2018-12-08T15:42:01.185Z,97747.45
2018-12-08T15:45:08.003Z,97738.09
2018-12-08T15:48:11.277Z,97736.50
2018-12-08T15:51:14.506Z,97733.56
2018-12-08T15:54:17.749Z,97738.10
2018-12-08T15:57:20.983Z,97730.89
2018-12-08T16:00:24.260Z,97738.11
2018-12-08T16:03:27.461Z,97727.69
2018-12-08T16:06:30.685Z,97722.59
2018-12-08T16:09:33.939Z,97727.41
2018-12-08T16:12:37.181Z,97734.07
2018-12-08T16:15:40.447Z,97723.16
2018-12-08T16:18:43.666Z,97725.55
2018-12-08T16:21:46.933Z,97729.03
2018-12-08T16:24:50.212Z,97737.27
2018-12-08T16:27:53.513Z,97739.42
2018-12-08T16:30:56.821Z,97732.75
2018-12-08T16:34:00.112Z,97738.36
2018-12-08T16:37:03.396Z,97734.63
2018-12-08T16:40:06.676Z,97732.98
2018-12-08T16:43:10.013Z,97702.03
2018-12-08T16:46:13.213Z,97708.13
2018-12-08T16:49:16.487Z,97707.88
2018-12-08T16:52:19.737Z,97708.13
2018-12-08T16:55:22.981Z,97711.84
2018-12-08T16:58:26.230Z,97709.16
2018-12-08T17:01:29.503Z,97693.94
2018-12-08T17:04:32.766Z,97695.83
2018-12-08T17:07:36.048Z,97693.16
2018-12-08T17:10:39.302Z,97694.74
2018-12-08T17:13:42.563Z,97687.81
2018-12-08T17:16:45.807Z,97678.42
2018-12-08T17:19:49.028Z,97680.29
2018-12-08T17:22:52.268Z,97670.97
2018-12-08T17:25:55.516Z,97666.46
2018-12-08T17:28:58.736Z,97665.12
2018-12-08T17:32:02.046Z,97659.50
2018-12-08T17:35:05.312Z,97656.83
2018-12-08T17:38:08.580Z,97649.62
2018-12-08T17:41:11.823Z,97646.10
2018-12-08T17:44:15.048Z,97641.35
2018-12-08T17:47:18.372Z,97630.95
2018-12-08T17:50:21.599Z,97616.81
2018-12-08T17:53:24.841Z,97620.02
2018-12-08T17:56:28.124Z,97613.61
2018-12-08T17:59:31.348Z,97609.04
2018-12-08T18:02:34.614Z,97602.36
2018-12-08T18:05:39.952Z,97595.16
2018-12-08T18:08:43.176Z,97597.02
2018-12-08T18:11:46.546Z,97606.13
2018-12-08T18:14:49.772Z,97601.30
2018-12-08T18:17:53.072Z,97589.28
2018-12-08T18:20:56.320Z,97594.34
2018-12-08T18:23:59.633Z,97594.38
2018-12-08T18:27:03.030Z,97578.88
2018-12-08T18:30:07.293Z,97572.77
2018-12-08T18:33:10.546Z,97538.84
2018-12-08T18:36:13.758Z,97541.23
2018-12-08T18:39:17.018Z,97539.13
2018-12-08T18:42:20.224Z,97530.83
2018-12-08T18:45:23.475Z,97537.19
2018-12-08T18:48:26.677Z,97539.90
2018-12-08T18:51:29.907Z,97525.20
2018-12-08T18:54:33.158Z,97524.40
2018-12-08T18:57:36.405Z,97521.16
2018-12-08T19:00:39.685Z,97508.89
2018-12-08T19:03:43.007Z,97490.91
2018-12-08T19:06:46.213Z,97477.31
2018-12-08T19:09:49.601Z,97492.81
2018-12-08T19:12:52.844Z,97488.22
2018-12-08T19:15:56.145Z,97480.80
2018-12-08T19:18:59.371Z,97464.70
2018-12-08T19:22:02.812Z,97460.41
2018-12-08T19:25:06.732Z,97441.47
2018-12-08T19:28:09.998Z,97447.61
2018-12-08T19:31:13.207Z,97420.91
2018-12-08T19:34:16.419Z,97420.66
2018-12-08T19:37:19.672Z,97442.86
2018-12-08T19:40:22.900Z,97413.69
2018-12-08T19:43:27.001Z,97405.23
2018-12-08T19:46:30.337Z,97409.98
2018-12-08T19:49:33.588Z,97407.31
2018-12-08T19:52:36.828Z,97396.33
2018-12-08T19:55:40.080Z,97392.09
2018-12-08T19:58:43.309Z,97382.53
2018-12-08T20:01:46.572Z,97382.24
2018-12-08T20:04:49.788Z,97368.88
2018-12-08T20:07:53.067Z,97382.22
2018-12-08T20:10:56.277Z,97372.08
2018-12-08T20:13:59.559Z,97371.83
2018-12-08T20:17:02.766Z,97360.69
2018-12-08T20:20:06.060Z,97363.07
2018-12-08T20:23:09.317Z,97342.27
2018-12-08T20:26:12.648Z,97352.45
2018-12-08T20:29:16.001Z,97349.52
2018-12-08T20:32:19.332Z,97339.63
2018-12-08T20:35:22.637Z,97327.02
2018-12-08T20:38:25.857Z,97329.44
2018-12-08T20:41:29.127Z,97313.93
2018-12-08T20:44:32.338Z,97313.88
2018-12-08T20:47:35.590Z,97301.91
2018-12-08T20:50:38.795Z,97300.59
2018-12-08T20:53:42.097Z,97291.23
2018-12-08T20:56:45.310Z,97286.95
2018-12-08T20:59:48.603Z,97266.97
2018-12-08T21:02:51.837Z,97260.33
2018-12-08T21:05:55.095Z,97266.98
2018-12-08T21:08:58.320Z,97257.10
2018-12-08T21:12:01.586Z,97245.03
2018-12-08T21:15:05.468Z,97235.66
2018-12-08T21:18:08.744Z,97223.80
2018-12-08T21:21:12.397Z,97209.70
2018-12-08T21:24:15.677Z,97216.89
2018-12-08T21:27:18.881Z,97205.39
2018-12-08T21:30:22.189Z,97190.70
2018-12-08T21:33:25.416Z,97189.80
2018-12-08T21:36:28.660Z,97183.61
2018-12-08T21:39:31.901Z,97176.62
2018-12-08T21:42:35.176Z,97174.48
2018-12-08T21:45:38.419Z,97173.66
2018-12-08T21:48:41.740Z,97168.82
2018-12-08T21:51:45.782Z,97160.20
2018-12-08T21:54:49.078Z,97149.22
2018-12-08T21:57:52.282Z,97147.11
2018-12-08T22:00:55.560Z,97140.74
2018-12-08T22:03:58.820Z,97133.04
2018-12-08T22:07:02.076Z,97116.18
2018-12-08T22:10:05.869Z,97093.27
2018-12-08T22:13:09.124Z,97073.89
2018-12-08T22:16:12.375Z,97073.16
2018-12-08T22:19:15.661Z,97084.58
2018-12-08T22:22:18.885Z,97083.97
2018-12-08T22:25:22.151Z,97093.48
2018-12-08T22:28:25.369Z,97071.47
2018-12-08T22:31:28.590Z,97064.77
2018-12-08T22:34:31.904Z,97051.80
2018-12-08T22:37:35.233Z,97033.59
2018-12-08T22:40:38.479Z,97034.34
2018-12-08T22:43:41.791Z,97027.86
2018-12-08T22:46:45.128Z,97013.16
2018-12-08T22:49:48.360Z,96997.00
2018-12-08T22:52:51.723Z,96975.61
2018-12-08T22:55:54.980Z,96979.86
2018-12-08T22:58:58.206Z,96965.52
2018-12-08T23:02:01.465Z,96965.92
2018-12-08T23:05:05.335Z,96951.59
2018-12-08T23:08:08.614Z,96964.59
2018-12-08T23:11:11.949Z,96951.58
2018-12-08T23:14:15.316Z,96939.90
2018-12-08T23:17:18.642Z,96933.60
2018-12-08T23:20:21.884Z,96924.50
2018-12-08T23:23:25.209Z,96913.42
2018-12-08T23:26:28.594Z,96895.56
2018-12-08T23:29:31.955Z,96904.33
2018-12-08T23:32:35.230Z,96895.07
2018-12-08T23:35:38.444Z,96891.06
2018-12-08T23:38:41.731Z,96894.03
2018-12-08T23:41:44.989Z,96887.62
2018-12-08T23:44:48.261Z,96885.05
2018-12-08T23:47:51.481Z,96884.71
2018-12-08T23:50:54.776Z,96871.44
2018-12-08T23:53:58.072Z,96879.25
2018-12-08T23:57:01.330Z,96863.30
